sensor_id;sensor_type;location;lat;lon;timestamp;P1;durP1;ratioP1;P2;durP2;ratioP2
18013;SDS011;9132;47.946;10.394;2024-03-23T00:54:37;2.97;;;2.20;;
18013;SDS011;9132;47.946;10.394;2024-03-23T00:57:03;3.17;;;2.20;;
18013;SDS011;9132;47.946;10.394;2024-03-23T00:59:29;3.17;;;2.33;;
18013;SDS011;9132;47.946;10.394;2024-03-23T01:01:56;3.77;;;2.73;;
18013;SDS011;9132;47.946;10.394;2024-03-23T01:04:22;2.67;;;2.27;;
18013;SDS011;9132;47.946;10.394;2024-03-23T01:06:48;3.63;;;2.50;;
18013;SDS011;9132;47.946;10.394;2024-03-23T01:09:15;4.50;;;2.70;;
18013;SDS011;9132;47.946;10.394;2024-03-23T01:11:41;3.87;;;2.90;;
18013;SDS011;9132;47.946;10.394;2024-03-23T01:14:07;3.30;;;2.53;;
18013;SDS011;9132;47.946;10.394;2024-03-23T01:16:33;4.33;;;2.70;;
18013;SDS011;9132;47.946;10.394;2024-03-23T01:18:59;3.30;;;2.40;;
18013;SDS011;9132;47.946;10.394;2024-03-23T01:21:26;4.37;;;2.37;;
18013;SDS011;9132;47.946;10.394;2024-03-23T01:23:51;3.17;;;2.40;;
18013;SDS011;9132;47.946;10.394;2024-03-23T01:26:19;3.17;;;2.80;;
18013;SDS011;9132;47.946;10.394;2024-03-23T01:28:45;3.63;;;2.70;;
18013;SDS011;9132;47.946;10.394;2024-03-23T01:31:11;3.17;;;2.50;;
18013;SDS011;9132;47.946;10.394;2024-03-23T01:33:37;5.77;;;2.77;;
18013;SDS011;9132;47.946;10.394;2024-03-23T01:36:03;2.63;;;2.27;;
18013;SDS011;9132;47.946;10.394;2024-03-23T01:38:29;2.60;;;2.23;;
18013;SDS011;9132;47.946;10.394;2024-03-23T01:40:56;3.33;;;2.53;;
18013;SDS011;9132;47.946;10.394;2024-03-23T01:43:24;4.97;;;2.77;;
18013;SDS011;9132;47.946;10.394;2024-03-23T01:45:50;2.90;;;2.23;;
18013;SDS011;9132;47.946;10.394;2024-03-23T01:48:16;3.10;;;2.53;;
18013;SDS011;9132;47.946;10.394;2024-03-23T01:50:42;3.07;;;2.20;;
18013;SDS011;9132;47.946;10.394;2024-03-23T01:53:08;3.47;;;2.80;;
18013;SDS011;9132;47.946;10.394;2024-03-23T01:55:35;5.07;;;2.73;;
18013;SDS011;9132;47.946;10.394;2024-03-23T01:58:00;4.93;;;2.73;;
18013;SDS011;9132;47.946;10.394;2024-03-23T02:00:28;3.53;;;2.70;;
18013;SDS011;9132;47.946;10.394;2024-03-23T02:02:54;3.83;;;2.60;;
18013;SDS011;9132;47.946;10.394;2024-03-23T02:05:20;3.90;;;2.77;;
18013;SDS011;9132;47.946;10.394;2024-03-23T02:07:47;2.80;;;2.60;;
18013;SDS011;9132;47.946;10.394;2024-03-23T02:10:13;2.87;;;2.57;;
18013;SDS011;9132;47.946;10.394;2024-03-23T02:12:40;3.73;;;2.83;;
18013;SDS011;9132;47.946;10.394;2024-03-23T02:15:06;2.50;;;2.20;;
18013;SDS011;9132;47.946;10.394;2024-03-23T02:17:35;3.17;;;2.50;;
18013;SDS011;9132;47.946;10.394;2024-03-23T02:20:02;3.17;;;2.63;;
18013;SDS011;9132;47.946;10.394;2024-03-23T02:22:35;3.70;;;2.53;;
18013;SDS011;9132;47.946;10.394;2024-03-23T02:25:03;4.27;;;3.23;;
18013;SDS011;9132;47.946;10.394;2024-03-23T02:27:30;4.30;;;2.63;;
18013;SDS011;9132;47.946;10.394;2024-03-23T02:29:56;3.90;;;2.47;;
18013;SDS011;9132;47.946;10.394;2024-03-23T02:32:22;3.03;;;2.73;;
18013;SDS011;9132;47.946;10.394;2024-03-23T02:34:48;3.97;;;2.40;;
18013;SDS011;9132;47.946;10.394;2024-03-23T02:37:14;2.63;;;2.20;;
18013;SDS011;9132;47.946;10.394;2024-03-23T02:39:40;4.97;;;2.30;;
18013;SDS011;9132;47.946;10.394;2024-03-23T02:42:07;4.83;;;3.00;;
18013;SDS011;9132;47.946;10.394;2024-03-23T02:44:34;5.53;;;1.97;;
18013;SDS011;9132;47.946;10.394;2024-03-23T02:46:59;2.40;;;2.20;;
18013;SDS011;9132;47.946;10.394;2024-03-23T02:49:26;2.77;;;2.20;;
18013;SDS011;9132;47.946;10.394;2024-03-23T02:51:52;3.07;;;1.77;;
18013;SDS011;9132;47.946;10.394;2024-03-23T02:54:18;2.00;;;1.63;;
18013;SDS011;9132;47.946;10.394;2024-03-23T02:56:44;5.00;;;1.90;;
18013;SDS011;9132;47.946;10.394;2024-03-23T02:59:12;2.43;;;1.70;;
18013;SDS011;9132;47.946;10.394;2024-03-23T03:01:37;1.70;;;1.60;;
18013;SDS011;9132;47.946;10.394;2024-03-23T03:04:04;2.67;;;2.00;;
18013;SDS011;9132;47.946;10.394;2024-03-23T03:06:30;2.23;;;1.80;;
18013;SDS011;9132;47.946;10.394;2024-03-23T03:08:57;2.53;;;1.60;;
18013;SDS011;9132;47.946;10.394;2024-03-23T03:11:22;2.00;;;1.60;;
18013;SDS011;9132;47.946;10.394;2024-03-23T03:13:49;2.73;;;1.83;;
18013;SDS011;9132;47.946;10.394;2024-03-23T03:16:16;3.00;;;1.57;;
18013;SDS011;9132;47.946;10.394;2024-03-23T03:18:43;1.70;;;1.60;;
18013;SDS011;9132;47.946;10.394;2024-03-23T03:21:08;1.60;;;1.50;;
18013;SDS011;9132;47.946;10.394;2024-03-23T03:23:36;1.57;;;1.47;;
18013;SDS011;9132;47.946;10.394;2024-03-23T03:26:01;1.50;;;1.33;;
18013;SDS011;9132;47.946;10.394;2024-03-23T03:28:28;5.77;;;1.87;;
18013;SDS011;9132;47.946;10.394;2024-03-23T03:30:55;3.90;;;1.70;;
18013;SDS011;9132;47.946;10.394;2024-03-23T03:33:23;2.90;;;1.30;;
18013;SDS011;9132;47.946;10.394;2024-03-23T03:35:49;2.40;;;1.50;;
18013;SDS011;9132;47.946;10.394;2024-03-23T03:38:16;1.70;;;1.60;;
18013;SDS011;9132;47.946;10.394;2024-03-23T03:40:42;1.60;;;1.50;;
18013;SDS011;9132;47.946;10.394;2024-03-23T03:43:09;2.30;;;1.33;;
18013;SDS011;9132;47.946;10.394;2024-03-23T03:45:34;2.27;;;1.67;;
18013;SDS011;9132;47.946;10.394;2024-03-23T03:48:01;2.43;;;1.43;;
18013;SDS011;9132;47.946;10.394;2024-03-23T03:50:27;3.17;;;1.20;;
18013;SDS011;9132;47.946;10.394;2024-03-23T03:52:54;2.33;;;1.50;;
18013;SDS011;9132;47.946;10.394;2024-03-23T03:55:19;2.73;;;1.30;;
18013;SDS011;9132;47.946;10.394;2024-03-23T03:57:46;1.80;;;1.40;;
18013;SDS011;9132;47.946;10.394;2024-03-23T04:00:12;2.70;;;1.50;;
18013;SDS011;9132;47.946;10.394;2024-03-23T04:02:39;1.90;;;1.40;;
18013;SDS011;9132;47.946;10.394;2024-03-23T04:05:05;3.20;;;1.50;;
18013;SDS011;9132;47.946;10.394;2024-03-23T04:07:34;1.83;;;1.50;;
18013;SDS011;9132;47.946;10.394;2024-03-23T04:10:00;2.60;;;1.40;;
18013;SDS011;9132;47.946;10.394;2024-03-23T04:12:27;2.30;;;1.47;;
18013;SDS011;9132;47.946;10.394;2024-03-23T04:14:53;2.00;;;1.40;;
18013;SDS011;9132;47.946;10.394;2024-03-23T04:17:19;1.77;;;1.30;;
18013;SDS011;9132;47.946;10.394;2024-03-23T04:19:45;1.90;;;1.40;;
18013;SDS011;9132;47.946;10.394;2024-03-23T04:22:12;2.70;;;1.47;;
18013;SDS011;9132;47.946;10.394;2024-03-23T04:24:39;1.50;;;1.30;;
18013;SDS011;9132;47.946;10.394;2024-03-23T04:27:05;5.20;;;1.37;;
18013;SDS011;9132;47.946;10.394;2024-03-23T04:29:31;1.90;;;1.50;;
18013;SDS011;9132;47.946;10.394;2024-03-23T04:31:57;1.67;;;1.33;;
18013;SDS011;9132;47.946;10.394;2024-03-23T04:34:23;2.67;;;1.63;;
18013;SDS011;9132;47.946;10.394;2024-03-23T04:36:49;2.93;;;1.50;;
18013;SDS011;9132;47.946;10.394;2024-03-23T04:39:15;1.50;;;1.20;;
18013;SDS011;9132;47.946;10.394;2024-03-23T04:41:43;2.53;;;1.60;;
18013;SDS011;9132;47.946;10.394;2024-03-23T04:44:10;3.30;;;1.40;;
18013;SDS011;9132;47.946;10.394;2024-03-23T04:46:37;2.00;;;1.30;;
18013;SDS011;9132;47.946;10.394;2024-03-23T04:49:03;4.03;;;1.37;;
18013;SDS011;9132;47.946;10.394;2024-03-23T04:51:35;2.70;;;1.47;;
18013;SDS011;9132;47.946;10.394;2024-03-23T04:54:02;1.40;;;1.30;;
18013;SDS011;9132;47.946;10.394;2024-03-23T04:56:29;3.03;;;1.70;;
18013;SDS011;9132;47.946;10.394;2024-03-23T04:58:58;2.10;;;1.17;;
18013;SDS011;9132;47.946;10.394;2024-03-23T05:01:26;1.80;;;1.40;;
18013;SDS011;9132;47.946;10.394;2024-03-23T05:03:53;3.07;;;1.70;;
18013;SDS011;9132;47.946;10.394;2024-03-23T05:06:18;1.77;;;1.40;;
18013;SDS011;9132;47.946;10.394;2024-03-23T05:08:45;3.10;;;1.40;;
18013;SDS011;9132;47.946;10.394;2024-03-23T05:11:11;1.20;;;1.10;;
18013;SDS011;9132;47.946;10.394;2024-03-23T05:13:37;1.83;;;1.30;;
18013;SDS011;9132;47.946;10.394;2024-03-23T05:16:04;2.20;;;1.30;;
18013;SDS011;9132;47.946;10.394;2024-03-23T05:18:31;1.47;;;1.33;;
18013;SDS011;9132;47.946;10.394;2024-03-23T05:20:57;2.10;;;1.37;;
18013;SDS011;9132;47.946;10.394;2024-03-23T05:23:23;1.70;;;1.40;;
18013;SDS011;9132;47.946;10.394;2024-03-23T05:25:49;1.70;;;1.20;;
18013;SDS011;9132;47.946;10.394;2024-03-23T05:28:16;2.77;;;1.33;;
18013;SDS011;9132;47.946;10.394;2024-03-23T05:30:42;1.40;;;1.30;;
18013;SDS011;9132;47.946;10.394;2024-03-23T05:33:10;1.67;;;1.17;;
18013;SDS011;9132;47.946;10.394;2024-03-23T05:35:35;2.40;;;1.43;;
18013;SDS011;9132;47.946;10.394;2024-03-23T05:38:02;1.70;;;1.17;;
18013;SDS011;9132;47.946;10.394;2024-03-23T05:40:27;3.10;;;1.60;;
18013;SDS011;9132;47.946;10.394;2024-03-23T05:42:54;2.13;;;1.60;;
18013;SDS011;9132;47.946;10.394;2024-03-23T05:45:20;2.77;;;1.57;;
18013;SDS011;9132;47.946;10.394;2024-03-23T05:47:47;3.40;;;1.50;;
18013;SDS011;9132;47.946;10.394;2024-03-23T05:50:14;3.27;;;1.60;;
18013;SDS011;9132;47.946;10.394;2024-03-23T05:52:41;2.67;;;1.40;;
18013;SDS011;9132;47.946;10.394;2024-03-23T05:55:08;2.70;;;1.60;;
18013;SDS011;9132;47.946;10.394;2024-03-23T05:57:35;1.70;;;1.60;;
18013;SDS011;9132;47.946;10.394;2024-03-23T06:00:01;2.80;;;1.57;;
18013;SDS011;9132;47.946;10.394;2024-03-23T06:02:28;2.50;;;1.60;;
18013;SDS011;9132;47.946;10.394;2024-03-23T06:04:54;5.23;;;1.57;;
18013;SDS011;9132;47.946;10.394;2024-03-23T06:07:22;4.73;;;1.90;;
18013;SDS011;9132;47.946;10.394;2024-03-23T06:09:47;2.70;;;1.70;;
18013;SDS011;9132;47.946;10.394;2024-03-23T06:12:16;1.90;;;1.57;;
18013;SDS011;9132;47.946;10.394;2024-03-23T06:14:41;2.17;;;1.60;;
18013;SDS011;9132;47.946;10.394;2024-03-23T06:17:08;1.60;;;1.50;;
18013;SDS011;9132;47.946;10.394;2024-03-23T06:19:33;3.23;;;1.63;;
18013;SDS011;9132;47.946;10.394;2024-03-23T06:22:00;3.43;;;1.63;;
18013;SDS011;9132;47.946;10.394;2024-03-23T06:24:27;2.40;;;1.43;;
18013;SDS011;9132;47.946;10.394;2024-03-23T06:26:53;3.03;;;1.20;;
18013;SDS011;9132;47.946;10.394;2024-03-23T06:29:19;2.37;;;1.40;;
18013;SDS011;9132;47.946;10.394;2024-03-23T06:31:51;2.43;;;1.57;;
18013;SDS011;9132;47.946;10.394;2024-03-23T06:34:18;1.70;;;1.37;;
18013;SDS011;9132;47.946;10.394;2024-03-23T06:36:46;2.00;;;1.50;;
18013;SDS011;9132;47.946;10.394;2024-03-23T06:39:12;4.20;;;1.40;;
18013;SDS011;9132;47.946;10.394;2024-03-23T06:41:41;3.23;;;1.70;;
18013;SDS011;9132;47.946;10.394;2024-03-23T06:44:07;1.67;;;1.47;;
18013;SDS011;9132;47.946;10.394;2024-03-23T06:46:33;6.40;;;2.00;;
18013;SDS011;9132;47.946;10.394;2024-03-23T06:48:59;4.47;;;1.70;;
18013;SDS011;9132;47.946;10.394;2024-03-23T06:51:26;2.87;;;1.60;;
18013;SDS011;9132;47.946;10.394;2024-03-23T06:53:51;2.20;;;1.73;;
18013;SDS011;9132;47.946;10.394;2024-03-23T06:56:18;2.97;;;2.20;;
18013;SDS011;9132;47.946;10.394;2024-03-23T06:58:44;3.03;;;2.23;;
18013;SDS011;9132;47.946;10.394;2024-03-23T07:01:11;3.37;;;2.13;;
18013;SDS011;9132;47.946;10.394;2024-03-23T07:03:36;2.27;;;2.07;;
18013;SDS011;9132;47.946;10.394;2024-03-23T07:06:03;2.37;;;2.17;;
18013;SDS011;9132;47.946;10.394;2024-03-23T07:08:29;2.93;;;2.37;;
18013;SDS011;9132;47.946;10.394;2024-03-23T07:10:55;5.23;;;2.93;;
18013;SDS011;9132;47.946;10.394;2024-03-23T07:13:21;4.57;;;2.20;;
18013;SDS011;9132;47.946;10.394;2024-03-23T07:15:52;4.50;;;2.40;;
18013;SDS011;9132;47.946;10.394;2024-03-23T07:18:18;2.07;;;1.83;;
18013;SDS011;9132;47.946;10.394;2024-03-23T07:20:51;2.87;;;2.10;;
18013;SDS011;9132;47.946;10.394;2024-03-23T07:23:17;3.20;;;2.33;;
18013;SDS011;9132;47.946;10.394;2024-03-23T07:25:44;2.73;;;2.30;;
18013;SDS011;9132;47.946;10.394;2024-03-23T07:28:09;3.90;;;2.97;;
18013;SDS011;9132;47.946;10.394;2024-03-23T07:30:36;4.03;;;2.67;;
18013;SDS011;9132;47.946;10.394;2024-03-23T07:33:03;3.40;;;2.70;;
18013;SDS011;9132;47.946;10.394;2024-03-23T07:35:29;4.63;;;2.80;;
18013;SDS011;9132;47.946;10.394;2024-03-23T07:37:55;2.80;;;2.53;;
18013;SDS011;9132;47.946;10.394;2024-03-23T07:40:21;5.60;;;2.43;;
18013;SDS011;9132;47.946;10.394;2024-03-23T07:42:47;3.07;;;2.57;;
18013;SDS011;9132;47.946;10.394;2024-03-23T07:45:14;5.30;;;3.70;;
18013;SDS011;9132;47.946;10.394;2024-03-23T07:47:39;4.37;;;2.93;;
18013;SDS011;9132;47.946;10.394;2024-03-23T07:50:08;4.93;;;3.20;;
18013;SDS011;9132;47.946;10.394;2024-03-23T07:52:34;3.70;;;3.10;;
18013;SDS011;9132;47.946;10.394;2024-03-23T07:55:00;4.33;;;3.27;;
18013;SDS011;9132;47.946;10.394;2024-03-23T07:57:26;3.83;;;3.33;;
18013;SDS011;9132;47.946;10.394;2024-03-23T07:59:52;4.30;;;3.50;;
18013;SDS011;9132;47.946;10.394;2024-03-23T08:02:18;3.40;;;3.10;;
18013;SDS011;9132;47.946;10.394;2024-03-23T08:04:44;3.60;;;3.03;;
18013;SDS011;9132;47.946;10.394;2024-03-23T08:07:11;3.60;;;3.30;;
18013;SDS011;9132;47.946;10.394;2024-03-23T08:09:38;4.60;;;3.70;;
18013;SDS011;9132;47.946;10.394;2024-03-23T08:12:03;3.90;;;3.40;;
18013;SDS011;9132;47.946;10.394;2024-03-23T08:14:30;5.03;;;3.43;;
18013;SDS011;9132;47.946;10.394;2024-03-23T08:16:56;5.87;;;4.23;;
18013;SDS011;9132;47.946;10.394;2024-03-23T08:19:22;4.43;;;3.67;;
18013;SDS011;9132;47.946;10.394;2024-03-23T08:21:48;4.00;;;3.63;;
18013;SDS011;9132;47.946;10.394;2024-03-23T08:24:17;4.10;;;3.70;;
18013;SDS011;9132;47.946;10.394;2024-03-23T08:26:44;4.80;;;3.67;;
18013;SDS011;9132;47.946;10.394;2024-03-23T08:29:11;6.07;;;3.67;;
18013;SDS011;9132;47.946;10.394;2024-03-23T08:31:36;5.67;;;4.03;;
18013;SDS011;9132;47.946;10.394;2024-03-23T08:34:04;4.27;;;3.30;;
18013;SDS011;9132;47.946;10.394;2024-03-23T08:36:29;3.90;;;3.03;;
18013;SDS011;9132;47.946;10.394;2024-03-23T08:38:56;4.07;;;2.80;;
18013;SDS011;9132;47.946;10.394;2024-03-23T08:41:23;4.20;;;3.73;;
18013;SDS011;9132;47.946;10.394;2024-03-23T08:43:49;4.13;;;3.33;;
18013;SDS011;9132;47.946;10.394;2024-03-23T08:46:16;5.63;;;3.17;;
18013;SDS011;9132;47.946;10.394;2024-03-23T08:48:43;6.23;;;3.90;;
18013;SDS011;9132;47.946;10.394;2024-03-23T08:51:10;3.37;;;3.07;;
18013;SDS011;9132;47.946;10.394;2024-03-23T08:53:38;5.37;;;3.93;;
18013;SDS011;9132;47.946;10.394;2024-03-23T08:56:05;4.80;;;4.00;;
18013;SDS011;9132;47.946;10.394;2024-03-23T08:58:35;5.07;;;3.73;;
18013;SDS011;9132;47.946;10.394;2024-03-23T09:01:04;6.30;;;5.27;;
18013;SDS011;9132;47.946;10.394;2024-03-23T09:03:32;4.13;;;3.73;;
18013;SDS011;9132;47.946;10.394;2024-03-23T09:05:59;3.50;;;3.20;;
18013;SDS011;9132;47.946;10.394;2024-03-23T09:08:26;3.10;;;2.57;;
18013;SDS011;9132;47.946;10.394;2024-03-23T09:10:51;2.10;;;1.90;;
18013;SDS011;9132;47.946;10.394;2024-03-23T09:13:18;2.67;;;1.80;;
18013;SDS011;9132;47.946;10.394;2024-03-23T09:15:48;2.83;;;2.07;;
18013;SDS011;9132;47.946;10.394;2024-03-23T09:18:16;2.10;;;1.70;;
18013;SDS011;9132;47.946;10.394;2024-03-23T09:20:42;2.60;;;2.37;;
18013;SDS011;9132;47.946;10.394;2024-03-23T09:23:08;3.43;;;1.90;;
18013;SDS011;9132;47.946;10.394;2024-03-23T09:25:36;2.53;;;2.17;;
18013;SDS011;9132;47.946;10.394;2024-03-23T09:28:03;1.60;;;1.50;;
18013;SDS011;9132;47.946;10.394;2024-03-23T09:30:29;1.80;;;1.67;;
18013;SDS011;9132;47.946;10.394;2024-03-23T09:32:56;2.33;;;2.10;;
18013;SDS011;9132;47.946;10.394;2024-03-23T09:35:22;2.97;;;2.50;;
18013;SDS011;9132;47.946;10.394;2024-03-23T09:37:48;3.40;;;2.83;;
18013;SDS011;9132;47.946;10.394;2024-03-23T09:40:14;2.60;;;2.20;;
18013;SDS011;9132;47.946;10.394;2024-03-23T09:42:41;2.60;;;2.40;;
18013;SDS011;9132;47.946;10.394;2024-03-23T09:45:15;2.67;;;2.17;;
18013;SDS011;9132;47.946;10.394;2024-03-23T09:47:43;1.57;;;1.10;;
18013;SDS011;9132;47.946;10.394;2024-03-23T09:50:12;1.57;;;1.40;;
18013;SDS011;9132;47.946;10.394;2024-03-23T09:52:39;0.67;;;0.67;;
18013;SDS011;9132;47.946;10.394;2024-03-23T09:55:06;0.80;;;0.80;;
18013;SDS011;9132;47.946;10.394;2024-03-23T09:57:34;0.87;;;0.60;;
18013;SDS011;9132;47.946;10.394;2024-03-23T09:59:59;1.43;;;1.00;;
18013;SDS011;9132;47.946;10.394;2024-03-23T10:02:26;1.70;;;1.60;;
18013;SDS011;9132;47.946;10.394;2024-03-23T10:04:53;1.00;;;0.83;;
18013;SDS011;9132;47.946;10.394;2024-03-23T10:07:21;0.93;;;0.83;;
18013;SDS011;9132;47.946;10.394;2024-03-23T10:09:47;1.23;;;1.00;;
18013;SDS011;9132;47.946;10.394;2024-03-23T10:12:16;1.83;;;1.10;;
18013;SDS011;9132;47.946;10.394;2024-03-23T10:14:43;1.90;;;1.37;;
18013;SDS011;9132;47.946;10.394;2024-03-23T10:17:13;2.13;;;0.90;;
18013;SDS011;9132;47.946;10.394;2024-03-23T10:19:40;1.43;;;1.30;;
18013;SDS011;9132;47.946;10.394;2024-03-23T10:22:07;3.37;;;1.40;;
18013;SDS011;9132;47.946;10.394;2024-03-23T10:24:35;3.07;;;1.37;;
18013;SDS011;9132;47.946;10.394;2024-03-23T10:27:02;1.73;;;1.57;;
18013;SDS011;9132;47.946;10.394;2024-03-23T10:29:27;2.70;;;1.60;;
18013;SDS011;9132;47.946;10.394;2024-03-23T10:31:55;2.77;;;2.27;;
18013;SDS011;9132;47.946;10.394;2024-03-23T10:34:33;2.60;;;2.00;;
18013;SDS011;9132;47.946;10.394;2024-03-23T10:36:59;1.67;;;1.47;;
18013;SDS011;9132;47.946;10.394;2024-03-23T10:39:27;1.20;;;1.10;;
18013;SDS011;9132;47.946;10.394;2024-03-23T10:41:55;2.10;;;1.10;;
18013;SDS011;9132;47.946;10.394;2024-03-23T10:44:22;1.93;;;1.10;;
18013;SDS011;9132;47.946;10.394;2024-03-23T10:46:50;1.50;;;1.00;;
18013;SDS011;9132;47.946;10.394;2024-03-23T10:49:16;1.77;;;1.20;;
18013;SDS011;9132;47.946;10.394;2024-03-23T10:51:42;2.27;;;1.50;;
18013;SDS011;9132;47.946;10.394;2024-03-23T10:54:08;2.47;;;1.10;;
18013;SDS011;9132;47.946;10.394;2024-03-23T10:56:38;1.37;;;1.20;;
18013;SDS011;9132;47.946;10.394;2024-03-23T10:59:06;3.33;;;1.17;;
18013;SDS011;9132;47.946;10.394;2024-03-23T11:01:34;1.67;;;1.17;;
18013;SDS011;9132;47.946;10.394;2024-03-23T11:03:59;1.60;;;1.00;;
18013;SDS011;9132;47.946;10.394;2024-03-23T11:06:34;1.10;;;1.00;;
18013;SDS011;9132;47.946;10.394;2024-03-23T11:09:00;2.00;;;1.30;;
18013;SDS011;9132;47.946;10.394;2024-03-23T11:11:26;1.43;;;1.20;;
18013;SDS011;9132;47.946;10.394;2024-03-23T11:13:53;2.80;;;1.10;;
18013;SDS011;9132;47.946;10.394;2024-03-23T11:16:25;2.53;;;1.57;;
18013;SDS011;9132;47.946;10.394;2024-03-23T11:18:53;2.17;;;1.37;;
18013;SDS011;9132;47.946;10.394;2024-03-23T11:24:20;2.20;;;1.10;;
18013;SDS011;9132;47.946;10.394;2024-03-23T11:26:47;4.70;;;1.43;;
18013;SDS011;9132;47.946;10.394;2024-03-23T11:29:13;2.77;;;1.57;;
18013;SDS011;9132;47.946;10.394;2024-03-23T11:31:46;1.73;;;1.00;;
18013;SDS011;9132;47.946;10.394;2024-03-23T11:34:13;2.30;;;1.37;;
18013;SDS011;9132;47.946;10.394;2024-03-23T11:36:41;1.93;;;1.17;;
18013;SDS011;9132;47.946;10.394;2024-03-23T11:39:13;2.20;;;1.33;;
18013;SDS011;9132;47.946;10.394;2024-03-23T11:41:45;3.90;;;1.17;;
18013;SDS011;9132;47.946;10.394;2024-03-23T11:44:14;2.87;;;1.40;;
18013;SDS011;9132;47.946;10.394;2024-03-23T11:46:41;1.90;;;1.30;;
18013;SDS011;9132;47.946;10.394;2024-03-23T11:49:08;2.90;;;1.50;;
18013;SDS011;9132;47.946;10.394;2024-03-23T11:51:47;2.33;;;1.30;;
18013;SDS011;9132;47.946;10.394;2024-03-23T11:54:12;3.67;;;1.50;;
18013;SDS011;9132;47.946;10.394;2024-03-23T11:56:39;4.60;;;1.43;;
18013;SDS011;9132;47.946;10.394;2024-03-23T11:59:05;4.37;;;1.57;;
18013;SDS011;9132;47.946;10.394;2024-03-23T12:01:32;2.30;;;1.37;;
18013;SDS011;9132;47.946;10.394;2024-03-23T12:03:58;3.77;;;1.77;;
18013;SDS011;9132;47.946;10.394;2024-03-23T12:06:26;4.10;;;1.50;;
18013;SDS011;9132;47.946;10.394;2024-03-23T12:08:51;3.70;;;1.87;;
18013;SDS011;9132;47.946;10.394;2024-03-23T12:11:18;2.87;;;1.60;;
18013;SDS011;9132;47.946;10.394;2024-03-23T12:13:45;3.13;;;1.60;;
18013;SDS011;9132;47.946;10.394;2024-03-23T12:16:13;2.37;;;1.77;;
18013;SDS011;9132;47.946;10.394;2024-03-23T12:18:40;4.80;;;1.80;;
18013;SDS011;9132;47.946;10.394;2024-03-23T12:21:08;4.80;;;2.07;;
18013;SDS011;9132;47.946;10.394;2024-03-23T12:23:35;5.37;;;1.90;;
18013;SDS011;9132;47.946;10.394;2024-03-23T12:26:02;2.63;;;1.70;;
18013;SDS011;9132;47.946;10.394;2024-03-23T12:28:28;3.70;;;2.27;;
18013;SDS011;9132;47.946;10.394;2024-03-23T12:30:54;2.67;;;1.63;;
18013;SDS011;9132;47.946;10.394;2024-03-23T12:33:20;6.17;;;2.10;;
18013;SDS011;9132;47.946;10.394;2024-03-23T12:35:48;4.47;;;1.90;;
18013;SDS011;9132;47.946;10.394;2024-03-23T12:38:14;2.73;;;1.60;;
18013;SDS011;9132;47.946;10.394;2024-03-23T12:40:41;6.10;;;2.30;;
18013;SDS011;9132;47.946;10.394;2024-03-23T12:43:08;6.30;;;2.10;;
18013;SDS011;9132;47.946;10.394;2024-03-23T12:45:33;4.57;;;2.10;;
18013;SDS011;9132;47.946;10.394;2024-03-23T12:48:00;2.90;;;1.97;;
18013;SDS011;9132;47.946;10.394;2024-03-23T12:50:25;4.27;;;1.97;;
18013;SDS011;9132;47.946;10.394;2024-03-23T12:52:52;4.43;;;1.83;;
18013;SDS011;9132;47.946;10.394;2024-03-23T12:55:17;3.23;;;1.87;;
18013;SDS011;9132;47.946;10.394;2024-03-23T12:57:46;5.63;;;2.13;;
18013;SDS011;9132;47.946;10.394;2024-03-23T13:00:13;4.83;;;1.63;;
18013;SDS011;9132;47.946;10.394;2024-03-23T13:02:40;4.00;;;1.90;;
18013;SDS011;9132;47.946;10.394;2024-03-23T13:05:06;1.73;;;1.30;;
18013;SDS011;9132;47.946;10.394;2024-03-23T13:07:34;3.40;;;1.50;;
18013;SDS011;9132;47.946;10.394;2024-03-23T13:10:00;1.80;;;1.20;;
18013;SDS011;9132;47.946;10.394;2024-03-23T13:12:27;2.93;;;1.50;;
18013;SDS011;9132;47.946;10.394;2024-03-23T13:14:54;2.30;;;1.57;;
18013;SDS011;9132;47.946;10.394;2024-03-23T13:17:20;5.77;;;1.93;;
18013;SDS011;9132;47.946;10.394;2024-03-23T13:19:46;2.67;;;1.70;;
18013;SDS011;9132;47.946;10.394;2024-03-23T13:22:12;3.27;;;1.43;;
18013;SDS011;9132;47.946;10.394;2024-03-23T13:24:38;3.20;;;1.93;;
18013;SDS011;9132;47.946;10.394;2024-03-23T13:27:05;4.87;;;1.90;;
18013;SDS011;9132;47.946;10.394;2024-03-23T13:29:32;6.63;;;2.10;;
18013;SDS011;9132;47.946;10.394;2024-03-23T13:32:01;3.07;;;1.93;;
18013;SDS011;9132;47.946;10.394;2024-03-23T13:34:27;5.40;;;1.70;;
18013;SDS011;9132;47.946;10.394;2024-03-23T13:36:54;5.07;;;2.00;;
18013;SDS011;9132;47.946;10.394;2024-03-23T13:39:21;5.30;;;3.73;;
18013;SDS011;9132;47.946;10.394;2024-03-23T13:41:47;5.77;;;2.90;;
18013;SDS011;9132;47.946;10.394;2024-03-23T13:44:13;8.97;;;3.90;;
18013;SDS011;9132;47.946;10.394;2024-03-23T13:46:41;6.53;;;2.30;;
18013;SDS011;9132;47.946;10.394;2024-03-23T13:49:09;6.80;;;2.50;;
18013;SDS011;9132;47.946;10.394;2024-03-23T13:51:50;6.30;;;2.40;;
18013;SDS011;9132;47.946;10.394;2024-03-23T13:54:15;4.47;;;2.50;;
18013;SDS011;9132;47.946;10.394;2024-03-23T13:56:42;4.47;;;2.43;;
18013;SDS011;9132;47.946;10.394;2024-03-23T13:59:08;6.47;;;2.70;;
18013;SDS011;9132;47.946;10.394;2024-03-23T14:01:34;5.33;;;2.47;;
18013;SDS011;9132;47.946;10.394;2024-03-23T14:04:00;3.50;;;1.90;;
18013;SDS011;9132;47.946;10.394;2024-03-23T14:06:28;4.07;;;2.00;;
18013;SDS011;9132;47.946;10.394;2024-03-23T14:08:53;2.63;;;2.00;;
18013;SDS011;9132;47.946;10.394;2024-03-23T14:11:20;4.50;;;2.73;;
18013;SDS011;9132;47.946;10.394;2024-03-23T14:13:45;3.43;;;1.90;;
18013;SDS011;9132;47.946;10.394;2024-03-23T14:16:12;2.67;;;1.70;;
18013;SDS011;9132;47.946;10.394;2024-03-23T14:18:37;3.17;;;1.70;;
18013;SDS011;9132;47.946;10.394;2024-03-23T14:21:04;1.40;;;1.20;;
18013;SDS011;9132;47.946;10.394;2024-03-23T14:23:31;2.27;;;1.80;;
18013;SDS011;9132;47.946;10.394;2024-03-23T14:25:59;2.87;;;1.60;;
18013;SDS011;9132;47.946;10.394;2024-03-23T14:28:24;3.70;;;1.60;;
18013;SDS011;9132;47.946;10.394;2024-03-23T14:30:51;4.23;;;1.87;;
18013;SDS011;9132;47.946;10.394;2024-03-23T14:33:20;4.47;;;2.17;;
18013;SDS011;9132;47.946;10.394;2024-03-23T14:35:51;4.40;;;1.70;;
18013;SDS011;9132;47.946;10.394;2024-03-23T14:38:17;6.23;;;2.10;;
18013;SDS011;9132;47.946;10.394;2024-03-23T14:40:45;4.10;;;1.60;;
18013;SDS011;9132;47.946;10.394;2024-03-23T14:43:11;4.97;;;1.67;;
18013;SDS011;9132;47.946;10.394;2024-03-23T14:45:45;4.00;;;1.70;;
18013;SDS011;9132;47.946;10.394;2024-03-23T14:48:28;2.87;;;1.50;;
18013;SDS011;9132;47.946;10.394;2024-03-23T14:50:55;3.23;;;1.30;;
18013;SDS011;9132;47.946;10.394;2024-03-23T14:53:21;2.00;;;1.10;;
18013;SDS011;9132;47.946;10.394;2024-03-23T14:55:49;3.60;;;1.30;;
18013;SDS011;9132;47.946;10.394;2024-03-23T14:58:15;1.97;;;1.37;;
18013;SDS011;9132;47.946;10.394;2024-03-23T15:00:42;1.90;;;1.30;;
18013;SDS011;9132;47.946;10.394;2024-03-23T15:03:08;1.77;;;1.17;;
18013;SDS011;9132;47.946;10.394;2024-03-23T15:05:35;2.43;;;1.20;;
18013;SDS011;9132;47.946;10.394;2024-03-23T15:08:02;3.27;;;1.30;;
18013;SDS011;9132;47.946;10.394;2024-03-23T15:10:29;3.43;;;1.40;;
18013;SDS011;9132;47.946;10.394;2024-03-23T15:12:56;1.60;;;0.97;;
18013;SDS011;9132;47.946;10.394;2024-03-23T15:15:22;1.77;;;0.80;;
18013;SDS011;9132;47.946;10.394;2024-03-23T15:17:48;3.70;;;1.87;;
18013;SDS011;9132;47.946;10.394;2024-03-23T15:20:15;3.20;;;1.43;;
18013;SDS011;9132;47.946;10.394;2024-03-23T15:22:41;2.63;;;1.40;;
18013;SDS011;9132;47.946;10.394;2024-03-23T15:25:08;4.77;;;1.20;;
18013;SDS011;9132;47.946;10.394;2024-03-23T15:27:33;2.43;;;1.07;;
18013;SDS011;9132;47.946;10.394;2024-03-23T15:30:01;2.47;;;1.00;;
18013;SDS011;9132;47.946;10.394;2024-03-23T15:32:27;3.17;;;1.30;;
18013;SDS011;9132;47.946;10.394;2024-03-23T15:34:53;1.40;;;1.10;;
18013;SDS011;9132;47.946;10.394;2024-03-23T15:37:19;3.07;;;1.30;;
18013;SDS011;9132;47.946;10.394;2024-03-23T15:39:45;2.73;;;1.03;;
18013;SDS011;9132;47.946;10.394;2024-03-23T15:42:11;1.80;;;1.00;;